Time;durP1;ratioP1;P1;durP2;ratioP2;P2;SDS_P1;SDS_P2;PMS_P1;PMS_P2;Temp;Humidity;BMP_temperature;BMP_pressure;BME280_temperature;BME280_humidity;BME280_pressure;Samples;Min_cycle;Max_cycle;Signal;HPM_P1;HPM_P2
2022/12/02 00:01:28;;;;;;;55.28;21.30;;;4.10;99.90;;;;;;5047359;28;20435;-65
2022/12/02 00:03:55;;;;;;;61.53;22.23;;;4.10;99.90;;;;;;5050240;28;20094;-65
2022/12/02 00:06:29;;;;;;;54.40;21.00;;;4.00;99.90;;;;;;5037047;28;20040;-64
2022/12/02 00:09:13;;;;;;;50.67;20.85;;;4.00;99.90;;;;;;5036502;28;20033;-65
2022/12/02 00:11:39;;;;;;;57.30;20.83;;;4.10;99.90;;;;;;5038128;28;20047;-65
2022/12/02 00:14:23;;;;;;;56.83;21.50;;;4.10;99.90;;;;;;5049981;28;20485;-66
2022/12/02 00:16:50;;;;;;;56.00;21.77;;;4.10;99.90;;;;;;5018295;28;20145;-65
2022/12/02 00:19:15;;;;;;;55.50;21.42;;;4.10;99.90;;;;;;5043664;28;20051;-65
2022/12/02 00:21:41;;;;;;;53.63;21.20;;;4.10;99.90;;;;;;5028120;28;20473;-65
2022/12/02 00:24:07;;;;;;;56.15;22.35;;;4.10;99.90;;;;;;5045027;28;20061;-67
2022/12/02 00:26:33;;;;;;;52.85;20.77;;;4.10;99.90;;;;;;5041796;28;20044;-65
2022/12/02 00:28:59;;;;;;;49.35;20.63;;;4.10;99.90;;;;;;5046612;28;20086;-66
2022/12/02 00:31:25;;;;;;;59.92;21.52;;;4.00;99.90;;;;;;5043169;28;20033;-64
2022/12/02 00:33:50;;;;;;;51.00;21.40;;;4.00;99.90;;;;;;5035515;28;20039;-66
2022/12/02 00:36:16;;;;;;;56.53;20.73;;;4.00;99.90;;;;;;5046232;28;20036;-65
2022/12/02 00:38:42;;;;;;;57.83;21.48;;;4.00;99.90;;;;;;5041495;28;20029;-66
2022/12/02 00:41:08;;;;;;;56.13;22.30;;;4.10;99.90;;;;;;5030860;28;20064;-66
2022/12/02 00:46:33;;;;;;;58.47;20.48;;;4.00;99.90;;;;;;5027145;28;20040;-66
2022/12/02 00:49:03;;;;;;;57.35;21.42;;;4.00;99.90;;;;;;5049874;28;20473;-66
2022/12/02 00:51:29;;;;;;;59.13;21.23;;;4.00;99.90;;;;;;5044161;28;20104;-67
2022/12/02 00:53:55;;;;;;;54.67;21.88;;;4.10;99.90;;;;;;5049238;28;20031;-65
2022/12/02 00:56:21;;;;;;;59.33;20.98;;;4.10;99.90;;;;;;5033953;28;20038;-66
2022/12/02 00:58:46;;;;;;;55.85;21.73;;;4.10;99.90;;;;;;5027592;28;20030;-65
2022/12/02 01:01:12;;;;;;;56.00;21.75;;;4.00;99.90;;;;;;5035298;28;20032;-66
2022/12/02 01:03:37;;;;;;;53.33;20.70;;;4.00;99.90;;;;;;5030330;28;20041;-66
2022/12/02 01:06:03;;;;;;;54.20;21.10;;;4.00;99.90;;;;;;5027372;28;20036;-65
2022/12/02 01:08:29;;;;;;;48.65;20.02;;;4.00;99.90;;;;;;5031137;28;20033;-66
2022/12/02 01:10:56;;;;;;;51.38;20.67;;;4.00;99.90;;;;;;5037549;28;20167;-65
2022/12/02 01:13:23;;;;;;;52.97;21.63;;;4.00;99.90;;;;;;5026414;28;20131;-65
2022/12/02 01:15:49;;;;;;;54.55;21.55;;;4.00;99.90;;;;;;5038386;28;20029;-66
2022/12/02 01:18:15;;;;;;;53.63;21.05;;;4.00;99.90;;;;;;5027286;28;20053;-65
2022/12/02 01:20:41;;;;;;;54.95;21.65;;;4.10;99.90;;;;;;5031723;28;20079;-65
2022/12/02 01:23:06;;;;;;;58.53;21.73;;;4.00;99.90;;;;;;5046870;28;20025;-65
2022/12/02 01:25:33;;;;;;;59.60;23.05;;;4.10;99.90;;;;;;5037692;28;20615;-66
2022/12/02 01:27:58;;;;;;;56.63;21.58;;;4.00;99.90;;;;;;5027764;28;20557;-65
2022/12/02 01:30:24;;;;;;;58.00;22.27;;;4.00;99.90;;;;;;5042409;28;20120;-65
2022/12/02 01:32:50;;;;;;;58.42;22.70;;;4.00;99.90;;;;;;5028107;28;20036;-66
2022/12/02 01:35:16;;;;;;;58.30;21.80;;;4.10;99.90;;;;;;5028466;28;20069;-66
2022/12/02 01:37:41;;;;;;;59.80;22.83;;;4.00;99.90;;;;;;5026445;28;20041;-66
2022/12/02 01:40:09;;;;;;;59.72;22.20;;;4.00;99.90;;;;;;5042608;28;20096;-66
2022/12/02 01:42:34;;;;;;;53.90;21.70;;;4.00;99.90;;;;;;5031588;28;20033;-64
2022/12/02 01:45:00;;;;;;;63.67;22.15;;;4.00;99.90;;;;;;5042306;28;20525;-66
2022/12/02 01:47:26;;;;;;;60.30;22.40;;;4.10;99.90;;;;;;5039547;28;20076;-66
2022/12/02 01:49:52;;;;;;;57.50;22.13;;;4.10;99.90;;;;;;5013715;28;20045;-64
2022/12/02 01:52:18;;;;;;;60.55;22.17;;;4.10;99.90;;;;;;5043221;28;20029;-66
2022/12/02 01:54:44;;;;;;;55.85;21.88;;;4.10;99.90;;;;;;5047066;28;20037;-66
2022/12/02 01:57:11;;;;;;;55.20;22.00;;;4.10;99.90;;;;;;5027311;28;20025;-66
2022/12/02 01:59:39;;;;;;;59.80;22.00;;;4.10;99.90;;;;;;5026739;28;20818;-64
2022/12/02 02:02:44;;;;;;;54.25;21.48;;;4.10;99.90;;;;;;5030607;28;20017;-64
2022/12/02 02:05:17;;;;;;;58.67;22.40;;;4.10;99.90;;;;;;4985383;28;21605;-63
2022/12/02 02:07:52;;;;;;;59.72;22.13;;;4.10;99.90;;;;;;5006026;28;20042;-65
2022/12/02 02:10:20;;;;;;;61.97;22.42;;;4.10;99.90;;;;;;4994790;28;20121;-66
2022/12/02 02:12:46;;;;;;;64.05;22.65;;;4.10;99.90;;;;;;4968096;28;20575;-65
2022/12/02 02:15:14;;;;;;;57.15;22.13;;;4.10;99.90;;;;;;4998387;28;20490;-68
2022/12/02 02:17:39;;;;;;;56.95;20.77;;;4.10;99.90;;;;;;4989345;28;20046;-65
2022/12/02 02:20:09;;;;;;;60.13;22.10;;;4.10;99.90;;;;;;4985426;28;20601;-65
2022/12/02 02:22:51;;;;;;;54.20;21.45;;;4.10;99.90;;;;;;4967788;28;20030;-65
2022/12/02 02:25:17;;;;;;;57.45;21.25;;;4.10;99.90;;;;;;4984767;28;20035;-67
2022/12/02 02:27:49;;;;;;;57.63;22.70;;;4.10;99.90;;;;;;4985033;28;20586;-65
2022/12/02 02:30:14;;;;;;;55.75;22.55;;;4.10;99.90;;;;;;4967696;28;20046;-67
2022/12/02 02:32:40;;;;;;;63.92;23.38;;;4.10;99.90;;;;;;4984778;28;20041;-65
2022/12/02 02:35:06;;;;;;;61.03;22.13;;;4.10;99.90;;;;;;4990965;28;20038;-67
2022/12/02 02:37:32;;;;;;;58.50;22.95;;;4.10;99.90;;;;;;5035718;28;20761;-65
2022/12/02 02:39:57;;;;;;;60.15;22.58;;;4.00;99.90;;;;;;5047999;28;20029;-65
2022/12/02 02:42:23;;;;;;;61.70;22.10;;;4.10;99.90;;;;;;5047079;28;20436;-65
2022/12/02 02:44:50;;;;;;;60.85;23.95;;;4.10;99.90;;;;;;5031679;28;20029;-66
2022/12/02 02:47:15;;;;;;;62.40;22.92;;;4.10;99.90;;;;;;5045490;28;20032;-68
2022/12/02 02:49:41;;;;;;;65.10;23.50;;;4.10;99.90;;;;;;5047840;28;20355;-66
2022/12/02 02:52:07;;;;;;;56.85;22.33;;;4.10;99.90;;;;;;5030631;28;20576;-66
2022/12/02 02:54:32;;;;;;;61.38;22.52;;;4.00;99.90;;;;;;5035420;28;20067;-65
2022/12/02 02:56:58;;;;;;;61.70;23.00;;;4.10;99.90;;;;;;5032785;28;20041;-65
2022/12/02 02:59:24;;;;;;;59.70;24.25;;;4.10;99.90;;;;;;5035436;28;20495;-65
2022/12/02 03:01:51;;;;;;;56.35;22.00;;;4.10;99.90;;;;;;5048870;28;20367;-65
2022/12/02 03:04:17;;;;;;;59.80;23.25;;;4.10;99.90;;;;;;5037932;28;20021;-67
2022/12/02 03:06:44;;;;;;;56.95;21.63;;;4.10;99.90;;;;;;5029803;28;20756;-63
2022/12/02 03:09:13;;;;;;;60.70;23.05;;;4.10;99.90;;;;;;5025807;28;20298;-66
2022/12/02 03:11:40;;;;;;;58.65;22.27;;;4.10;99.90;;;;;;5036058;28;20094;-67
2022/12/02 03:14:06;;;;;;;58.38;22.27;;;4.10;99.90;;;;;;5050077;28;20065;-66
2022/12/02 03:16:32;;;;;;;59.30;22.05;;;4.10;99.90;;;;;;5049279;28;20044;-65
2022/12/02 03:18:58;;;;;;;62.28;22.45;;;4.10;99.90;;;;;;5050557;28;20486;-65
2022/12/02 03:21:25;;;;;;;52.47;21.63;;;4.10;99.90;;;;;;5034216;28;20112;-65
2022/12/02 03:23:53;;;;;;;60.90;22.63;;;4.10;99.90;;;;;;5044304;28;20056;-66
2022/12/02 03:26:20;;;;;;;54.30;21.35;;;4.10;99.90;;;;;;5046765;28;20111;-66
2022/12/02 03:28:46;;;;;;;64.57;24.33;;;4.20;99.90;;;;;;5049668;28;20036;-66
2022/12/02 03:31:13;;;;;;;60.85;23.40;;;4.10;99.90;;;;;;5047235;28;20039;-66
2022/12/02 03:33:40;;;;;;;58.25;21.85;;;4.10;99.90;;;;;;5037865;28;20607;-65
2022/12/02 03:36:06;;;;;;;63.60;22.77;;;4.10;99.90;;;;;;5029293;28;20038;-66
2022/12/02 03:38:32;;;;;;;62.42;23.38;;;4.10;99.90;;;;;;5031471;28;20033;-65
2022/12/02 03:41:00;;;;;;;64.80;22.80;;;4.10;99.90;;;;;;5036260;28;20116;-67
2022/12/02 03:43:25;;;;;;;58.78;22.30;;;4.10;99.90;;;;;;5031128;28;20121;-65
2022/12/02 03:45:51;;;;;;;56.55;22.20;;;4.10;99.90;;;;;;5041876;28;20116;-66
2022/12/02 03:48:20;;;;;;;54.47;22.05;;;4.10;99.90;;;;;;5047678;28;20029;-66
2022/12/02 03:50:48;;;;;;;63.00;22.90;;;4.10;99.90;;;;;;5035775;28;20084;-65
2022/12/02 03:53:14;;;;;;;64.45;23.73;;;4.10;99.90;;;;;;5029757;28;20021;-65
2022/12/02 03:55:39;;;;;;;57.30;21.45;;;4.10;99.90;;;;;;5045366;28;20595;-65
2022/12/02 03:58:06;;;;;;;59.58;23.23;;;4.10;99.90;;;;;;5050035;28;20060;-68
2022/12/02 04:00:33;;;;;;;57.83;23.20;;;4.10;99.90;;;;;;5042537;28;20787;-64
2022/12/02 04:02:59;;;;;;;56.90;21.55;;;4.10;99.90;;;;;;5031476;28;20486;-66
2022/12/02 04:05:25;;;;;;;71.47;23.35;;;4.10;99.90;;;;;;5035804;28;20032;-65
2022/12/02 04:07:50;;;;;;;61.13;22.77;;;4.10;99.90;;;;;;5029993;28;20029;-63
2022/12/02 04:10:16;;;;;;;60.60;22.70;;;4.10;99.90;;;;;;5029301;28;20041;-65
2022/12/02 04:12:41;;;;;;;62.03;22.75;;;4.10;99.90;;;;;;5028175;28;20109;-64
2022/12/02 04:15:07;;;;;;;63.58;22.48;;;4.10;99.90;;;;;;5026799;28;21594;-65
2022/12/02 04:17:33;;;;;;;59.47;22.98;;;4.10;99.90;;;;;;5037647;28;20477;-66
2022/12/02 04:19:59;;;;;;;57.00;21.67;;;4.10;99.90;;;;;;5031354;28;20041;-65
2022/12/02 04:22:24;;;;;;;58.88;22.77;;;4.10;99.90;;;;;;5028299;28;20029;-65
2022/12/02 04:24:50;;;;;;;65.40;23.40;;;4.10;99.90;;;;;;5044521;28;20038;-65
2022/12/02 04:27:16;;;;;;;62.53;23.45;;;4.10;99.90;;;;;;5039667;28;20493;-65
2022/12/02 04:29:41;;;;;;;61.13;22.77;;;4.10;99.90;;;;;;5028523;28;20113;-64
2022/12/02 04:32:07;;;;;;;60.22;22.17;;;4.10;99.90;;;;;;5031948;28;20040;-65
2022/12/02 04:34:32;;;;;;;57.50;21.23;;;4.10;99.90;;;;;;5033292;28;20037;-65
2022/12/02 04:36:58;;;;;;;64.20;22.25;;;4.10;99.90;;;;;;5029012;28;20048;-65
2022/12/02 04:39:23;;;;;;;63.03;23.08;;;4.10;99.90;;;;;;5035101;28;20115;-67
2022/12/02 04:41:49;;;;;;;61.58;22.45;;;4.10;99.90;;;;;;5047145;28;20028;-66
2022/12/02 04:44:15;;;;;;;59.72;22.40;;;4.10;99.90;;;;;;5032966;28;20512;-64
2022/12/02 04:46:40;;;;;;;65.07;23.02;;;4.10;99.90;;;;;;5032457;28;20045;-65
2022/12/02 04:49:06;;;;;;;57.28;21.80;;;4.20;99.90;;;;;;5041715;28;20033;-65
2022/12/02 04:51:31;;;;;;;60.33;21.85;;;4.10;99.90;;;;;;5040617;28;20744;-66
2022/12/02 04:53:57;;;;;;;60.95;22.42;;;4.20;99.90;;;;;;5040460;28;20093;-65
2022/12/02 04:56:23;;;;;;;59.90;22.30;;;4.10;99.90;;;;;;5033818;28;20496;-66
2022/12/02 04:58:49;;;;;;;62.70;23.15;;;4.10;99.90;;;;;;5025741;28;20502;-64
2022/12/02 05:01:14;;;;;;;59.22;22.27;;;4.10;99.90;;;;;;5026301;28;20029;-63
2022/12/02 05:03:40;;;;;;;60.85;21.55;;;4.10;99.90;;;;;;5014366;28;20056;-64
2022/12/02 05:06:06;;;;;;;62.97;22.65;;;4.20;99.90;;;;;;5026916;28;20418;-64
2022/12/02 05:08:31;;;;;;;60.80;23.42;;;4.20;99.90;;;;;;5024505;28;20037;-65
2022/12/02 05:10:57;;;;;;;54.90;21.58;;;4.20;99.90;;;;;;5029050;28;20402;-64
2022/12/02 05:13:22;;;;;;;58.75;21.42;;;4.20;99.90;;;;;;5040460;28;20049;-64
2022/12/02 05:15:48;;;;;;;59.35;21.30;;;4.20;99.90;;;;;;5038279;28;20029;-65
2022/12/02 05:18:14;;;;;;;55.85;20.30;;;4.20;99.90;;;;;;5045058;28;20048;-64
2022/12/02 05:20:39;;;;;;;63.00;22.10;;;4.20;99.90;;;;;;5033817;28;20847;-64
2022/12/02 05:23:05;;;;;;;61.70;23.33;;;4.20;99.90;;;;;;5043961;28;20029;-63
2022/12/02 05:25:30;;;;;;;57.90;22.45;;;4.10;99.90;;;;;;5026825;28;20036;-65
2022/12/02 05:27:56;;;;;;;60.53;22.00;;;4.10;99.90;;;;;;5043088;28;20377;-64
2022/12/02 05:30:22;;;;;;;62.10;21.40;;;4.10;99.90;;;;;;5037026;28;20160;-64
2022/12/02 05:32:47;;;;;;;55.00;21.05;;;4.10;99.90;;;;;;5027921;28;20037;-65
2022/12/02 05:35:13;;;;;;;61.38;22.35;;;4.10;99.90;;;;;;5025550;28;20037;-64
2022/12/02 05:37:38;;;;;;;53.92;20.45;;;4.10;99.90;;;;;;5034248;28;20398;-65
2022/12/02 05:40:05;;;;;;;58.03;22.45;;;4.00;99.90;;;;;;5044184;28;20382;-65
2022/12/02 05:42:32;;;;;;;61.47;23.02;;;4.00;99.90;;;;;;5037757;28;20640;-65
2022/12/02 05:45:00;;;;;;;64.60;23.27;;;4.00;99.90;;;;;;5026483;28;20033;-65
2022/12/02 05:47:29;;;;;;;62.67;22.08;;;4.00;99.90;;;;;;5033407;28;20037;-64
2022/12/02 05:49:56;;;;;;;67.93;24.05;;;4.00;99.90;;;;;;5027692;28;20029;-64
2022/12/02 05:52:27;;;;;;;63.95;24.00;;;4.00;99.90;;;;;;5041330;28;20442;-64
2022/12/02 05:54:58;;;;;;;63.47;23.17;;;4.00;99.90;;;;;;5034526;28;20090;-64
2022/12/02 05:57:29;;;;;;;54.47;21.95;;;4.00;99.90;;;;;;5028256;28;20037;-64
2022/12/02 06:00:25;;;;;;;55.85;21.00;;;4.00;99.90;;;;;;5029270;28;20505;-66
2022/12/02 06:02:52;;;;;;;51.17;19.75;;;4.00;99.90;;;;;;5041078;28;20041;-65
2022/12/02 06:05:24;;;;;;;56.85;20.10;;;4.00;99.90;;;;;;5048237;28;20040;-63
2022/12/02 06:07:56;;;;;;;51.42;19.20;;;4.00;99.90;;;;;;5024022;28;20120;-64
2022/12/02 06:10:28;;;;;;;53.25;19.65;;;4.00;99.90;;;;;;5036508;28;20033;-62
2022/12/02 06:12:58;;;;;;;52.75;19.58;;;3.90;99.90;;;;;;5046421;28;20128;-64
2022/12/02 06:15:35;;;;;;;50.95;18.60;;;3.90;99.90;;;;;;5035810;28;20037;-63
2022/12/02 06:18:15;;;;;;;54.80;19.48;;;3.80;99.90;;;;;;5031856;28;20112;-64
2022/12/02 06:20:42;;;;;;;56.00;20.80;;;3.80;99.90;;;;;;5031392;28;20091;-64
2022/12/02 06:23:13;;;;;;;61.10;22.15;;;3.80;99.90;;;;;;5031070;28;20044;-64
2022/12/02 06:25:39;;;;;;;50.55;19.45;;;3.80;99.90;;;;;;5043209;28;20136;-64
2022/12/02 06:28:14;;;;;;;53.30;20.05;;;3.80;99.90;;;;;;5052039;28;20119;-64
2022/12/02 06:30:40;;;;;;;54.15;20.05;;;3.80;99.90;;;;;;5047508;28;20036;-64
2022/12/02 06:33:29;;;;;;;54.65;20.50;;;3.80;99.90;;;;;;5031824;28;20394;-64
2022/12/02 06:35:56;;;;;;;54.55;19.98;;;3.90;99.90;;;;;;5029492;28;20158;-64
2022/12/02 06:38:29;;;;;;;59.70;21.30;;;3.90;99.90;;;;;;5031716;28;20029;-64
2022/12/02 06:41:01;;;;;;;49.22;18.67;;;3.90;99.90;;;;;;5030643;28;20115;-65
2022/12/02 06:43:29;;;;;;;56.80;18.55;;;3.80;99.90;;;;;;5012311;28;20026;-64
2022/12/02 06:45:55;;;;;;;50.65;19.25;;;3.80;99.90;;;;;;5032277;28;20022;-64
2022/12/02 06:48:35;;;;;;;58.88;22.27;;;3.70;99.90;;;;;;5046731;28;20422;-64
2022/12/02 06:51:15;;;;;;;49.78;18.27;;;3.70;99.90;;;;;;5033243;28;20371;-64
2022/12/02 06:53:41;;;;;;;48.40;19.13;;;3.70;99.90;;;;;;5018330;28;20045;-64
2022/12/02 06:56:16;;;;;;;55.70;21.95;;;3.60;99.90;;;;;;5027710;28;20044;-64
2022/12/02 06:58:45;;;;;;;43.28;16.30;;;3.60;99.90;;;;;;5031746;28;20030;-64
2022/12/02 07:01:29;;;;;;;42.08;16.40;;;3.60;99.90;;;;;;5024095;28;20602;-64
2022/12/02 07:04:08;;;;;;;46.80;17.08;;;3.60;99.90;;;;;;5029350;28;20109;-64
2022/12/02 07:06:44;;;;;;;46.78;16.90;;;3.60;99.90;;;;;;5030179;28;20109;-65
2022/12/02 07:09:25;;;;;;;46.67;16.85;;;3.60;99.90;;;;;;5035784;28;20037;-65
2022/12/02 07:11:53;;;;;;;43.72;17.08;;;3.60;99.90;;;;;;5023473;28;20081;-64
2022/12/02 07:14:27;;;;;;;43.65;16.73;;;3.50;99.90;;;;;;5045122;28;20034;-64
2022/12/02 07:17:12;;;;;;;39.28;15.93;;;3.50;99.90;;;;;;5038862;28;20201;-65
2022/12/02 07:19:41;;;;;;;56.28;21.17;;;3.40;99.90;;;;;;5026030;28;20025;-68
2022/12/02 07:22:33;;;;;;;49.13;17.75;;;3.40;99.90;;;;;;5029126;28;20061;-69
2022/12/02 07:25:04;;;;;;;41.90;16.80;;;3.40;99.90;;;;;;5024016;28;20037;-68
2022/12/02 07:27:34;;;;;;;36.65;15.10;;;3.40;99.90;;;;;;5034684;28;20029;-70
2022/12/02 07:30:01;;;;;;;40.78;15.43;;;3.40;99.90;;;;;;5025800;28;20076;-66
2022/12/02 07:32:27;;;;;;;43.67;15.13;;;3.40;99.90;;;;;;5024153;28;20068;-67
2022/12/02 07:34:52;;;;;;;38.47;14.75;;;3.40;99.90;;;;;;5038468;28;20028;-66
2022/12/02 07:37:19;;;;;;;44.33;16.02;;;3.40;99.90;;;;;;5029070;28;20117;-68
2022/12/02 07:39:44;;;;;;;43.20;16.85;;;3.40;99.90;;;;;;5040832;28;20331;-69
2022/12/02 07:42:12;;;;;;;41.65;15.95;;;3.30;99.90;;;;;;5029226;28;20033;-67
2022/12/02 07:44:39;;;;;;;41.72;14.50;;;3.40;99.90;;;;;;5028104;28;20036;-66
2022/12/02 07:47:05;;;;;;;38.88;15.02;;;3.30;99.90;;;;;;5041265;28;20390;-67
2022/12/02 07:49:31;;;;;;;40.58;16.08;;;3.30;99.90;;;;;;5030962;28;20033;-71
2022/12/02 07:51:59;;;;;;;41.53;16.17;;;3.30;99.90;;;;;;5026056;28;20744;-68
2022/12/02 07:54:24;;;;;;;40.25;16.30;;;3.30;99.90;;;;;;5022975;28;20032;-70
2022/12/02 07:56:50;;;;;;;45.72;17.73;;;3.30;99.90;;;;;;5026305;28;20033;-67
2022/12/02 07:59:16;;;;;;;46.70;17.52;;;3.30;99.90;;;;;;5035973;28;20038;-65
2022/12/02 08:01:41;;;;;;;48.17;19.48;;;3.30;99.90;;;;;;5018456;28;20104;-69
2022/12/02 08:04:07;;;;;;;58.38;21.30;;;3.40;99.90;;;;;;5017868;28;20037;-67
2022/12/02 08:06:33;;;;;;;44.97;18.23;;;3.50;99.90;;;;;;5039726;28;20033;-70
2022/12/02 08:08:59;;;;;;;56.42;21.67;;;3.50;99.90;;;;;;5038991;28;20036;-68
2022/12/02 08:11:24;;;;;;;48.90;18.75;;;3.50;99.90;;;;;;5046673;28;20020;-67
2022/12/02 08:13:50;;;;;;;50.03;19.65;;;3.60;99.90;;;;;;5029181;28;20128;-70
2022/12/02 08:16:15;;;;;;;46.40;18.20;;;3.60;99.90;;;;;;5029096;28;20092;-67
2022/12/02 08:18:41;;;;;;;44.45;17.55;;;3.60;99.90;;;;;;5045462;28;20390;-69
2022/12/02 08:21:07;;;;;;;45.85;16.95;;;3.60;99.90;;;;;;5035564;28;20119;-69
2022/12/02 08:23:32;;;;;;;37.67;15.40;;;3.60;99.90;;;;;;5018643;28;20380;-72
2022/12/02 08:25:58;;;;;;;42.35;16.65;;;3.60;99.90;;;;;;5018526;28;20033;-69
2022/12/02 08:28:23;;;;;;;39.92;14.80;;;3.60;99.90;;;;;;5027233;28;20037;-68
2022/12/02 08:30:49;;;;;;;36.63;14.60;;;3.60;99.90;;;;;;5038451;28;20036;-68
2022/12/02 08:33:15;;;;;;;35.63;15.07;;;3.70;99.90;;;;;;5028662;28;20676;-68
2022/12/02 08:35:40;;;;;;;35.55;15.25;;;3.70;99.90;;;;;;5028198;28;20453;-68
2022/12/02 08:38:06;;;;;;;38.03;15.65;;;3.70;99.90;;;;;;5021704;28;20057;-69
2022/12/02 08:40:33;;;;;;;39.63;14.77;;;3.60;99.90;;;;;;5031833;28;20523;-68
2022/12/02 08:43:01;;;;;;;38.42;15.43;;;3.60;99.90;;;;;;5034974;28;20029;-69
2022/12/02 08:45:28;;;;;;;40.72;14.50;;;3.60;99.90;;;;;;5032685;28;20033;-67
2022/12/02 08:47:53;;;;;;;39.60;15.18;;;3.60;99.90;;;;;;5027111;28;20025;-69
2022/12/02 08:50:19;;;;;;;37.67;14.57;;;3.60;99.90;;;;;;5029307;28;20112;-69
2022/12/02 08:52:45;;;;;;;37.13;14.65;;;3.70;99.90;;;;;;5032532;28;20025;-67
2022/12/02 08:55:10;;;;;;;43.72;15.50;;;3.70;99.90;;;;;;5027756;28;20034;-68
2022/12/02 08:57:36;;;;;;;46.22;17.17;;;3.70;99.90;;;;;;5034108;28;20040;-70
2022/12/02 09:00:05;;;;;;;45.78;17.52;;;3.70;99.90;;;;;;5028191;28;20111;-67
2022/12/02 09:02:31;;;;;;;43.28;16.20;;;3.70;99.90;;;;;;5035553;28;20048;-65
2022/12/02 09:04:56;;;;;;;44.97;17.27;;;3.70;99.90;;;;;;5038842;28;20588;-68
2022/12/02 09:07:22;;;;;;;44.85;17.67;;;3.70;99.90;;;;;;5032648;28;20028;-66
2022/12/02 09:09:48;;;;;;;48.70;18.13;;;3.70;99.90;;;;;;5037362;28;20060;-69
2022/12/02 09:12:13;;;;;;;46.88;19.13;;;3.70;99.90;;;;;;5028093;28;20045;-68
2022/12/02 09:14:39;;;;;;;51.08;19.02;;;3.70;99.90;;;;;;5037834;28;20133;-72
2022/12/02 09:17:05;;;;;;;57.95;21.10;;;3.70;99.90;;;;;;5010732;28;20296;-67
2022/12/02 09:19:30;;;;;;;59.38;21.00;;;3.70;99.90;;;;;;5035731;28;20541;-67
2022/12/02 09:21:56;;;;;;;42.17;16.20;;;3.70;99.90;;;;;;5044111;28;20101;-69
2022/12/02 09:24:22;;;;;;;35.45;14.85;;;3.70;99.90;;;;;;5047663;28;20790;-68
2022/12/02 09:26:47;;;;;;;33.92;13.57;;;3.70;99.90;;;;;;5046285;28;20047;-69
2022/12/02 09:29:13;;;;;;;34.42;14.02;;;3.70;99.90;;;;;;5032129;28;20044;-67
2022/12/02 09:31:39;;;;;;;30.55;12.45;;;3.60;99.90;;;;;;5026913;28;20164;-70
2022/12/02 09:34:05;;;;;;;29.52;13.57;;;3.60;99.90;;;;;;5034500;28;20032;-70
2022/12/02 09:36:30;;;;;;;40.83;13.93;;;3.50;99.90;;;;;;5044535;28;20114;-70
2022/12/02 09:38:56;;;;;;;38.13;13.18;;;3.50;99.90;;;;;;5027839;28;20107;-69
2022/12/02 09:41:22;;;;;;;34.15;13.15;;;3.50;99.90;;;;;;5026674;28;20032;-70
2022/12/02 09:43:48;;;;;;;34.30;14.25;;;3.50;99.90;;;;;;5031158;28;20049;-69
2022/12/02 09:46:14;;;;;;;38.75;15.23;;;3.50;99.90;;;;;;5045646;28;20095;-69
2022/12/02 09:48:40;;;;;;;35.72;14.20;;;3.50;99.90;;;;;;5032625;28;20053;-71
2022/12/02 09:51:06;;;;;;;34.22;14.07;;;3.60;99.90;;;;;;5033520;28;20031;-68
2022/12/02 09:53:36;;;;;;;33.70;14.75;;;3.60;99.90;;;;;;5028012;28;20423;-68
2022/12/02 09:56:02;;;;;;;39.28;15.10;;;3.60;99.90;;;;;;5030239;28;20025;-69
2022/12/02 09:58:28;;;;;;;40.88;15.05;;;3.60;99.90;;;;;;5036525;28;20110;-70
2022/12/02 10:00:54;;;;;;;35.90;14.60;;;3.70;99.90;;;;;;5019395;28;20069;-70
2022/12/02 10:03:27;;;;;;;38.33;14.43;;;3.70;99.90;;;;;;5023425;28;20455;-69
2022/12/02 10:05:53;;;;;;;41.15;15.13;;;3.70;99.90;;;;;;5034074;28;20033;-69
2022/12/02 10:08:24;;;;;;;39.45;14.45;;;3.70;99.90;;;;;;5036940;28;20037;-70
2022/12/02 10:10:53;;;;;;;39.60;16.02;;;3.70;99.90;;;;;;5016538;28;20052;-69
2022/12/02 10:13:19;;;;;;;44.33;15.73;;;3.80;99.90;;;;;;5028482;28;20064;-68
2022/12/02 10:15:46;;;;;;;43.45;16.40;;;3.80;99.90;;;;;;5027711;28;20493;-68
2022/12/02 10:18:25;;;;;;;46.05;16.85;;;3.90;99.90;;;;;;5026541;28;20088;-69
2022/12/02 10:20:52;;;;;;;39.92;16.25;;;3.80;99.90;;;;;;5026537;28;20048;-69
2022/12/02 10:23:25;;;;;;;47.13;18.00;;;3.80;99.90;;;;;;5028036;28;20025;-67
2022/12/02 10:25:57;;;;;;;47.35;17.38;;;3.70;99.90;;;;;;5038635;28;20029;-69
2022/12/02 10:28:31;;;;;;;52.05;18.45;;;3.70;99.90;;;;;;5037250;28;20513;-68
2022/12/02 10:31:24;;;;;;;49.63;18.15;;;3.60;99.90;;;;;;5046904;28;20033;-68
2022/12/02 10:33:58;;;;;;;47.88;17.65;;;3.60;99.90;;;;;;5037915;28;20104;-69
2022/12/02 10:36:35;;;;;;;49.13;18.00;;;3.60;99.90;;;;;;5012228;28;20077;-69
2022/12/02 10:39:18;;;;;;;52.47;17.67;;;3.60;99.90;;;;;;5023600;28;20642;-70
2022/12/02 10:41:44;;;;;;;51.65;18.00;;;3.50;99.90;;;;;;5018706;28;20721;-71
2022/12/02 10:44:19;;;;;;;48.97;17.75;;;3.50;99.90;;;;;;5013595;28;20048;-68
2022/12/02 10:46:45;;;;;;;48.28;18.05;;;3.50;99.90;;;;;;5035089;28;20070;-69
2022/12/02 10:49:37;;;;;;;53.80;18.80;;;3.50;99.90;;;;;;5026109;28;20068;-69
2022/12/02 10:52:08;;;;;;;53.67;19.70;;;3.50;99.90;;;;;;5020934;28;20045;-70
2022/12/02 10:54:35;;;;;;;56.05;19.95;;;3.60;99.90;;;;;;5030374;28;20029;-69
2022/12/02 10:57:03;;;;;;;51.03;18.48;;;3.60;99.90;;;;;;5035020;28;20575;-68
2022/12/02 10:59:29;;;;;;;49.10;18.60;;;3.60;99.90;;;;;;5024575;28;20025;-71
2022/12/02 11:01:55;;;;;;;49.13;18.13;;;3.60;99.90;;;;;;5028915;28;20108;-71
2022/12/02 11:04:21;;;;;;;46.38;18.30;;;3.70;99.90;;;;;;5028230;28;20037;-68
2022/12/02 11:06:48;;;;;;;52.08;19.48;;;3.70;99.90;;;;;;5026393;28;20471;-68
2022/12/02 11:09:19;;;;;;;59.08;25.60;;;3.70;99.90;;;;;;5028978;28;20091;-68
2022/12/02 11:11:46;;;;;;;48.03;19.10;;;3.70;99.90;;;;;;5030537;28;20034;-70
2022/12/02 11:14:33;;;;;;;52.63;18.23;;;3.60;99.90;;;;;;5029844;28;20049;-68
2022/12/02 11:17:10;;;;;;;52.58;20.33;;;3.60;99.90;;;;;;5032782;28;20040;-68
2022/12/02 11:19:36;;;;;;;59.20;19.80;;;3.70;99.90;;;;;;5052070;28;20029;-67
2022/12/02 11:22:03;;;;;;;49.22;19.48;;;3.80;99.90;;;;;;5036787;28;20080;-67
2022/12/02 11:24:29;;;;;;;53.90;19.88;;;3.80;99.90;;;;;;5030623;28;20032;-68
2022/12/02 11:27:03;;;;;;;53.45;19.13;;;3.80;99.90;;;;;;5038642;28;20042;-67
2022/12/02 11:29:33;;;;;;;51.95;19.02;;;3.80;99.90;;;;;;5024854;28;20156;-68
2022/12/02 11:32:16;;;;;;;50.85;20.35;;;3.80;99.90;;;;;;5024142;28;20036;-68
2022/12/02 11:34:48;;;;;;;46.72;18.33;;;3.80;99.90;;;;;;5027606;28;20394;-67
2022/12/02 11:37:28;;;;;;;56.30;19.38;;;3.80;99.90;;;;;;5034197;28;20037;-68
2022/12/02 11:40:03;;;;;;;47.42;18.77;;;3.80;99.90;;;;;;5013621;28;20056;-68
2022/12/02 11:42:31;;;;;;;44.42;18.92;;;3.80;99.90;;;;;;5021505;28;20479;-67
2022/12/02 11:45:15;;;;;;;50.03;19.75;;;3.80;99.90;;;;;;5016988;28;20466;-67
2022/12/02 11:47:54;;;;;;;49.42;19.45;;;3.90;99.90;;;;;;5030175;28;20445;-65
2022/12/02 11:50:25;;;;;;;54.22;21.25;;;3.90;99.90;;;;;;5028455;28;20034;-67
2022/12/02 11:52:54;;;;;;;58.80;22.67;;;4.00;99.90;;;;;;5011551;28;20112;-67
2022/12/02 11:55:41;;;;;;;51.58;19.58;;;4.00;99.90;;;;;;5015286;28;20136;-66
2022/12/02 11:58:18;;;;;;;43.88;16.67;;;4.10;99.90;;;;;;5018576;28;20592;-66
2022/12/02 12:01:04;;;;;;;39.80;16.77;;;4.10;99.90;;;;;;5028396;28;20087;-67
2022/12/02 12:03:30;;;;;;;45.80;17.60;;;4.10;99.90;;;;;;5014624;28;20040;-67
2022/12/02 12:06:17;;;;;;;44.60;17.85;;;4.10;99.90;;;;;;5029354;28;20034;-66
2022/12/02 12:08:47;;;;;;;42.53;16.10;;;4.10;99.90;;;;;;5023643;28;20558;-66
2022/12/02 12:11:22;;;;;;;40.13;15.23;;;4.10;99.90;;;;;;5012192;28;20099;-66
2022/12/02 12:14:24;;;;;;;41.65;15.48;;;4.10;99.90;;;;;;5040609;28;20140;-70
2022/12/02 12:16:50;;;;;;;40.63;16.38;;;4.10;99.90;;;;;;5010746;28;20742;-71
2022/12/02 12:19:15;;;;;;;45.60;17.30;;;4.20;99.90;;;;;;5030490;28;20033;-67
2022/12/02 12:21:46;;;;;;;52.00;19.75;;;4.20;99.90;;;;;;5026121;28;20108;-66
2022/12/02 12:24:19;;;;;;;58.05;22.33;;;4.20;99.90;;;;;;5009845;28;20040;-67
2022/12/02 12:27:03;;;;;;;71.93;25.90;;;4.30;99.90;;;;;;5013800;28;20360;-67
2022/12/02 12:29:36;;;;;;;45.08;17.38;;;4.30;99.90;;;;;;5029296;28;20037;-67
2022/12/02 12:32:03;;;;;;;46.50;17.10;;;4.20;99.90;;;;;;5030958;28;20029;-67
2022/12/02 12:34:29;;;;;;;44.83;16.73;;;4.20;99.90;;;;;;5023386;28;20056;-69
2022/12/02 12:36:55;;;;;;;41.35;16.92;;;4.20;99.90;;;;;;5030580;28;20044;-67
2022/12/02 12:39:21;;;;;;;42.72;16.65;;;4.20;99.90;;;;;;5027208;28;20041;-68
2022/12/02 12:41:47;;;;;;;40.00;15.23;;;4.10;99.90;;;;;;5015229;28;20502;-67
2022/12/02 12:44:12;;;;;;;44.25;16.77;;;4.10;99.90;;;;;;5026167;28;20034;-68
2022/12/02 12:46:38;;;;;;;48.45;18.15;;;4.10;99.90;;;;;;5029002;28;20470;-66